Grover Beach, California
Current Conditions -  °F | °C
As of 12:56 AM on Wednesday 22 Oct 2014 (Local Time) from KSBP Reporting Station
Clear Clear  
Wind Chill: 65°   Ceiling: Unl
Heat Index: 65°   Visibility: 10mi
Dew Point: 38°   Wind: 5mph
Humidity: 37%   Direction: NA
Pressure: 29.95"   Gusts: NA
Location:  35.12°N, 120.62°W
Report Text: KSBP 220756Z AUTO VRB04KT 10SM CLR 18/03 A2995 RMK AO2 SLP140 T01830033 402670150
Loading
Personal Weather Stations






























Interactive Weather Map New forecast layout! Learn more

10-Day Weather Forecast

Advertisements
Track Severe Weather on mobile